Home > Products > Valid Products > TAF

000
FTUS41 KLWX 220100 AAA
TAFDCA
TAF AMD
KDCA 220117Z 2201/2224 33012G18KT P6SM -SHRA OVC045
     FM220400 33010G18KT P6SM OVC050
     FM220700 33010G18KT 5SM -SHRA OVC020
     FM221000 34013G18KT 6SM -SHRA SCT008 OVC015
     FM221200 35015G20KT P6SM SCT008 OVC015
     FM221700 34015G25KT P6SM OVC025=



000
FTUS41 KLWX 212300
TAFMRB
TAF
KMRB 212332Z 2200/2224 32007KT P6SM OVC025
     FM220500 32007KT P6SM OVC020
     FM220800 34011KT P6SM SCT015 OVC020
     FM221600 34014G20KT P6SM OVC025
     FM222200 34015G25KT P6SM BKN035=



000
FTUS41 KLWX 212300
TAFIAD
TAF
KIAD 212332Z 2200/2306 33005KT P6SM -SHRA OVC040
     FM220200 32007KT P6SM OVC040
     FM220600 33008KT 5SM -SHRA OVC015
     FM220900 34012KT 5SM -SHRA SCT008 OVC015
     FM221200 34015G23KT P6SM SCT008 OVC015
     FM222000 34016G25KT P6SM BKN030
     FM230000 33015G25KT P6SM BKN040=



000
FTUS41 KLWX 212300
TAFMTN
TAF
KMTN 212332Z 2200/2224 30015G20KT P6SM -SHRA OVC050
     FM220300 30015G20KT P6SM OVC060
     FM220600 30015G20KT 5SM -SHRA OVC045
     FM221000 01012G22KT 5SM -SHRA SCT015 OVC050
     FM221200 36014G25KT 3SM -SHRA OVC015
     FM222100 35015G30KT P6SM -SHRA OVC030
      AMD NOT SKED 2202/2212=



000
FTUS41 KLWX 212300
TAFBWI
TAF
KBWI 212332Z 2200/2306 30015G20KT 3SM -SHRA OVC045
     FM220200 35010KT P6SM OVC050
     FM220700 35010KT P6SM OVC040
     FM221000 36012G18KT P6SM SCT015 OVC040
     FM221200 36013G25KT 3SM -SHRA OVC015
     FM222100 34015G25KT P6SM -SHRA BKN030
     FM230000 33016G25KT P6SM BKN040=



000
FTUS41 KLWX 212300
TAFDCA
TAF
KDCA 212332Z 2200/2224 33012G18KT P6SM -SHRA OVC045
     FM220100 33012G18KT P6SM OVC045
     FM220400 33010G18KT P6SM OVC050
     FM220700 33010G18KT 5SM -SHRA OVC020
     FM221000 34013G18KT 6SM -SHRA SCT008 OVC015
     FM221200 35015G20KT P6SM SCT008 OVC015
     FM221700 34015G25KT P6SM OVC025=



000
FTUS41 KLWX 212300
TAFCHO
TAF
KCHO 212332Z 2200/2224 31006KT P6SM OVC035
     FM220600 33008KT P6SM OVC040
     FM221200 33012KT P6SM SCT015 OVC020
     FM221300 33011G18KT P6SM SCT015 OVC025
     FM221500 33013G22KT P6SM BKN040
     FM222300 33013G22KT P6SM SCT250=



000
FTUS41 KLWX 212200 AAA
TAFMTN
TAF AMD
KMTN 212252Z 2123/2218 30005KT 6SM -SHRA BKN050
      TEMPO 2123/2124 29012G18KT 3SM -TSRA BKN035CB
     FM220200 33010G17KT 6SM -SHRA OVC025
     FM220900 35010G18KT 5SM -SHRA SCT008 OVC015
     FM221200 36010G18KT 3SM -SHRA SCT008 OVC015
     FM221600 01014G21KT 5SM -SHRA OVC015=



000
FTUS41 KLWX 212200 AAA
TAFMTN
TAF AMD
KMTN 212252Z 2123/2218 30005KT 6SM -SHRA BKN050
      TEMPO 2123/2124 29012G18KT 3SM -TSRA BKN035CB
     FM220200 33010G17KT 6SM -SHRA OVC025
     FM220900 35010G18KT 5SM -SHRA SCT008 OVC015
     FM221200 36010G18KT 3SM -SHRA SCT008 OVC015
     FM221600 01014G21KT 5SM -SHRA OVC015=



000
FTUS41 KLWX 212200 AAB
TAFBWI
TAF AMD
KBWI 212244Z 2123/2224 29006KT 6SM -SHRA BKN050
      TEMPO 2123/2124 29012G18KT 3SM TSRA BKN035CB
     FM220200 33004KT 5SM -SHRA OVC025
     FM220700 35008KT P6SM OVC025
     FM221200 35010G15KT 3SM -SHRA SCT008 OVC015
     FM221800 34015G20KT 5SM -SHRA OVC020=



000
FTUS41 KLWX 212200 AAB
TAFBWI
TAF AMD
KBWI 212244Z 2123/2224 29006KT 6SM -SHRA BKN050
      TEMPO 2123/2124 29012G18KT 3SM TSRA BKN035CB
     FM220200 33004KT 5SM -SHRA OVC025
     FM220700 35008KT P6SM OVC025
     FM221200 35010G15KT 3SM -SHRA SCT008 OVC015
     FM221800 34015G20KT 5SM -SHRA OVC020=



000
FTUS41 KLWX 212100 AAB
TAFIAD
TAF AMD
KIAD 212126Z 2121/2224 32013G18KT 6SM -SHRA BKN035
     FM220000 32010KT P6SM OVC050
     FM220600 33008KT 3SM -SHRA SCT008 OVC015
     FM221200 33012G17KT P6SM SCT008 OVC015
     FM221900 33016G22KT P6SM BKN025=



000
FTUS41 KLWX 212100 AAB
TAFDCA
TAF AMD
KDCA 212125Z 2121/2218 33010G18KT 6SM -SHRA BKN050
     FM220300 33010G18KT P6SM OVC025
     FM220600 34010G18KT 3SM -SHRA SCT008 OVC015
     FM221200 34011G18KT P6SM SCT008 OVC015
     FM221500 34014G23KT P6SM OVC015=



000
FTUS41 KLWX 212000 AAA
TAFDCA
TAF AMD
KDCA 212058Z 2121/2218 33007KT 6SM -SHRA BKN050
     FM220300 33008KT P6SM OVC025
     FM220600 34008KT 3SM -SHRA SCT008 OVC015
     FM221200 34011G18KT P6SM SCT008 OVC015
     FM221500 34014G23KT P6SM OVC015=



000
FTUS41 KLWX 212000 AAA
TAFBWI
TAF AMD
KBWI 212058Z 2121/2224 29006KT 6SM -SHRA BKN050
     FM220200 33004KT 5SM -SHRA OVC025
     FM220700 35008KT P6SM OVC025
     FM221200 35010G15KT 3SM -SHRA SCT008 OVC015
     FM221800 34015G20KT 5SM -SHRA OVC020=



000
FTUS41 KLWX 212000 AAA
TAFIAD
TAF AMD
KIAD 212057Z 2121/2224 32008KT 6SM -SHRA BKN035
     FM220000 32005KT P6SM OVC050
     FM220600 33006KT 3SM -SHRA SCT008 OVC015
     FM221200 33012G17KT P6SM SCT008 OVC015
     FM221900 33016G22KT P6SM BKN025=



000
FTUS41 KLWX 211800 AAA
TAFMRB
TAF AMD
KMRB 211848Z 2119/2218 VRB05KT 6SM -RA OVC050
      TEMPO 2119/2123 3SM -RA OVC030
     FM212300 31005KT P6SM OVC025
     FM220600 33006KT 5SM -SHRA OVC015
     FM221100 34011G18KT P6SM OVC025=



000
FTUS41 KLWX 211700 RRA
TAFMRB
TAF
KMRB 211746Z 2118/2218 28005KT P6SM VCSH OVC040
     FM212300 31005KT P6SM OVC025
     FM220600 33006KT 5SM -SHRA OVC015
     FM221100 34011G18KT P6SM OVC025=



000
FTUS41 KLWX 211700 RRA
TAFMTN
TAF
KMTN 211746Z 2118/2218 VRB03KT P6SM SCT040
     FM212100 20005KT 6SM -SHRA BKN050
     FM220200 33004KT 6SM -SHRA OVC025
     FM220900 35008KT 5SM -SHRA OVC008
     FM221200 36010G18KT 3SM -SHRA OVC008
     FM221600 01014G21KT 5SM -SHRA OVC015=



000
FTUS41 KLWX 211700 RRA
TAFDCA
TAF
KDCA 211746Z 2118/2218 VRB04KT P6SM SCT050 BKN100
     FM212100 35004KT 6SM -SHRA BKN050
     FM220300 33007KT P6SM OVC025
     FM220600 34007KT 3SM -SHRA OVC008
     FM221200 34011G18KT P6SM OVC008
     FM221500 34014G21KT P6SM OVC015=



000
FTUS41 KLWX 211700 RRA
TAFIAD
TAF
KIAD 211746Z 2118/2224 30004KT P6SM OVC050
     FM212100 VRB03KT 6SM -SHRA BKN035
     FM220000 32005KT P6SM OVC050
     FM220600 33006KT 3SM -SHRA OVC008
     FM221200 33012G17KT P6SM OVC008
     FM221900 33016G22KT P6SM BKN025=



000
FTUS41 KLWX 211700 RRA
TAFBWI
TAF
KBWI 211746Z 2118/2224 28006KT P6SM SCT050
     FM212000 29005KT 6SM -SHRA BKN050
     FM220200 33004KT 5SM -SHRA OVC025
     FM220700 35008KT P6SM OVC025
     FM221200 35010G15KT 3SM -SHRA OVC008
     FM221800 34015G20KT 5SM -SHRA OVC020=



000
FTUS41 KLWX 211700 RRA
TAFCHO
TAF
KCHO 211746Z 2118/2218 22005KT P6SM FEW050
     FM212000 25005KT P6SM BKN050
     FM212300 31005KT P6SM OVC050
     FM220600 32006KT 5SM -SHRA OVC030
     FM221500 34013KT P6SM BKN050=



000
FTUS41 KLWX 211700 RRA
TAFMTN
TAF
KMTN 211746Z 2118/2218 VRB03KT P6SM SCT040
     FM212100 20005KT 6SM -SHRA BKN050
     FM220200 33004KT 6SM -SHRA OVC025
     FM220900 35008KT 5SM -SHRA OVC008
     FM221200 36010G18KT 3SM -SHRA OVC008
     FM221600 01014G21KT 5SM -SHRA OVC015=



000
FTUS41 KLWX 211700 RRA
TAFMRB
TAF
KMRB 211746Z 2118/2218 28005KT P6SM VCSH OVC040
     FM212300 31005KT P6SM OVC025
     FM220600 33006KT 5SM -SHRA OVC015
     FM221100 34011G18KT P6SM OVC025=



000
FTUS41 KLWX 211700 RRA
TAFDCA
TAF
KDCA 211746Z 2118/2218 VRB04KT P6SM SCT050 BKN100
     FM212100 35004KT 6SM -SHRA BKN050
     FM220300 33007KT P6SM OVC025
     FM220600 34007KT 3SM -SHRA OVC008
     FM221200 34011G18KT P6SM OVC008
     FM221500 34014G21KT P6SM OVC015=



000
FTUS41 KLWX 211700 RRA
TAFIAD
TAF
KIAD 211746Z 2118/2224 30004KT P6SM OVC050
     FM212100 VRB03KT 6SM -SHRA BKN035
     FM220000 32005KT P6SM OVC050
     FM220600 33006KT 3SM -SHRA OVC008
     FM221200 33012G17KT P6SM OVC008
     FM221900 33016G22KT P6SM BKN025=



000
FTUS41 KLWX 211700 RRA
TAFBWI
TAF
KBWI 211746Z 2118/2224 28006KT P6SM SCT050
     FM212000 29005KT 6SM -SHRA BKN050
     FM220200 33004KT 5SM -SHRA OVC025
     FM220700 35008KT P6SM OVC025
     FM221200 35010G15KT 3SM -SHRA OVC008
     FM221800 34015G20KT 5SM -SHRA OVC020=



000
FTUS41 KLWX 211700 RRA
TAFCHO
TAF
KCHO 211746Z 2118/2218 22005KT P6SM FEW050
     FM212000 25005KT P6SM BKN050
     FM212300 31005KT P6SM OVC050
     FM220600 32006KT 5SM -SHRA OVC030
     FM221500 34013KT P6SM BKN050=



000
FTUS41 KLWX 211500 AAA
TAFCHO
TAF AMD
KCHO 211518Z 2115/2212 VRB03KT P6SM SKC
     FM211800 25005KT P6SM SCT050
     FM212100 30005KT P6SM BKN045
     FM220500 34006KT P6SM BKN050
     FM220900 34007KT P6SM BKN030=



000
FTUS41 KLWX 211500 AAA
TAFCHO
TAF AMD
KCHO 211518Z 2115/2212 VRB03KT P6SM SKC
     FM211800 25005KT P6SM SCT050
     FM212100 30005KT P6SM BKN045
     FM220500 34006KT P6SM BKN050
     FM220900 34007KT P6SM BKN030=



000
FTUS41 KLWX 211500 AAB
TAFMRB
TAF AMD
KMRB 211515Z 2115/2212 VRB03KT P6SM BKN060
     FM211800 29005KT P6SM BKN040
     FM212100 28005KT P6SM VCSH OVC040
     FM220200 32005KT P6SM OVC030
     FM220400 34006KT P6SM OVC020=



000
FTUS41 KLWX 211500 AAA
TAFMTN
TAF AMD
KMTN 211513Z 2115/2212 VRB03KT P6SM FEW040 SCT100
     FM211800 23005KT P6SM BKN060
     FM212100 29005KT 5SM -SHRA BKN040
     FM220400 36005KT 6SM -SHRA OVC030=



000
FTUS41 KLWX 211500 AAA
TAFBWI
TAF AMD
KBWI 211511Z 2115/2218 VRB03KT P6SM FEW060 SCT100
     FM211800 28005KT P6SM BKN060
     FM212000 32005KT 5SM -SHRA BKN035
     FM220600 35007KT P6SM OVC015
     FM221200 33013KT P6SM OVC015=



000
FTUS41 KLWX 211500 AAB
TAFIAD
TAF AMD
KIAD 211511Z 2115/2218 VRB04KT P6SM FEW040 SCT100
     FM211800 29005KT P6SM SCT040 OVC080
     FM212100 31005KT 5SM -SHRA OVC050
     FM220000 32004KT P6SM OVC050
     FM220500 34006KT P6SM OVC030
     FM221200 33012KT P6SM OVC010
     FM221500 33015G23KT P6SM OVC015=



000
FTUS41 KLWX 211500 AAA
TAFDCA
TAF AMD
KDCA 211511Z 2115/2212 VRB03KT P6SM BKN100
     FM211800 29005KT P6SM BKN080
     FM212100 32005KT 6SM -SHRA OVC070
     FM220000 33006KT 5SM -SHRA OVC050
     FM220300 33005KT P6SM BKN050
     FM220800 34008KT P6SM OVC030=



000
FTUS41 KLWX 211200 AAA
TAFMRB
TAF AMD
KMRB 211222Z 2112/2212 00000KT 3SM BR SCT005
     FM211300 VRB03KT P6SM BKN060
     FM211800 29006KT 5SM -SHRA BKN040
     FM212100 28005KT P6SM OVC040
     FM220200 32005KT P6SM OVC030
     FM220400 34006KT P6SM OVC020=



000
FTUS41 KLWX 211200 AAA
TAFIAD
TAF AMD
KIAD 211220Z 2112/2218 00000KT 6SM BR SCT100
     FM211300 VRB04KT P6SM BKN080
     FM211800 29005KT 6SM -SHRA OVC050
     FM212100 31005KT 5SM -SHRA OVC050
     FM220000 32004KT P6SM OVC050
     FM220500 34006KT P6SM OVC030
     FM221200 33012KT P6SM OVC010
     FM221500 33015G23KT P6SM OVC015=



000
FTUS41 KLWX 211100 CCA
TAFIAD
TAF COR
KIAD 211157Z 2112/2218 00000KT P6SM SCT100
      TEMPO 2112/2113 2SM BR SCT100
     FM211400 00000KT P6SM BKN080
     FM211800 29005KT 6SM -SHRA OVC050
     FM212100 31005KT 5SM -SHRA OVC050
     FM220000 32004KT P6SM OVC050
     FM220500 34006KT P6SM OVC030
     FM221200 33012KT P6SM OVC010
     FM221500 33015G23KT P6SM OVC015=



000
FTUS41 KLWX 211100 CCA
TAFIAD
TAF COR
KIAD 211157Z 2112/2218 00000KT P6SM SCT100
      TEMPO 2112/2113 2SM BR SCT100
     FM211400 00000KT P6SM BKN080
     FM211800 29005KT 6SM -SHRA OVC050
     FM212100 31005KT 5SM -SHRA OVC050
     FM220000 32004KT P6SM OVC050
     FM220500 34006KT P6SM OVC030
     FM221200 33012KT P6SM OVC010
     FM221500 33015G23KT P6SM OVC015=



000
FTUS41 KLWX 211100
TAFCHO
TAF
KCHO 211139Z 2112/2212 VRB03KT P6SM SCT060 BKN120
     FM211400 26005KT P6SM BKN090
     FM211800 25005KT 6SM -SHRA BKN050
     FM212100 28005KT P6SM BKN045
     FM220500 34006KT P6SM BKN050
     FM220900 34007KT P6SM BKN030=



000
FTUS41 KLWX 211100
TAFMTN
TAF
KMTN 211139Z 2112/2212 00000KT 5SM BR BKN100
     FM211300 VRB03KT P6SM BKN100
     FM211800 26005KT 6SM -SHRA BKN060
     FM212100 29005KT 5SM -SHRA BKN040
     FM220400 36005KT 6SM -SHRA OVC030=



000
FTUS41 KLWX 211100
TAFBWI
TAF
KBWI 211139Z 2112/2218 27005KT P6SM BKN100
     FM211800 27005KT 6SM -SHRA BKN060
     FM212100 32005KT 5SM -SHRA BKN035
     FM220600 35007KT P6SM OVC015
     FM221200 33013KT P6SM OVC015=



000
FTUS41 KLWX 211100
TAFIAD
TAF
KIAD 211139Z 2112/2218 00000KT 5SM BR SCT100
     FM211300 00000KT P6SM BKN080
     FM211800 29005KT 6SM -SHRA OVC050
     FM212100 31005KT 5SM -SHRA OVC050
     FM220000 32004KT P6SM OVC050
     FM220500 34006KT P6SM OVC030
     FM221200 33012KT P6SM OVC010
     FM221500 33015G23KT P6SM OVC015=



000
FTUS41 KLWX 211100
TAFMRB
TAF
KMRB 211139Z 2112/2212 00000KT 2SM BR OVC005
      TEMPO 2112/2114 1SM BR VV002
     FM211400 VRB03KT P6SM BKN060
     FM211800 29006KT 5SM -SHRA BKN040
     FM212100 28005KT P6SM OVC040
     FM220200 32005KT P6SM OVC030
     FM220400 34006KT P6SM OVC020=



000
FTUS41 KLWX 211100
TAFDCA
TAF
KDCA 211139Z 2112/2212 VRB03KT P6SM SCT100
     FM211400 28005KT P6SM BKN090
     FM211800 28005KT 6SM -SHRA OVC070
     FM220000 33006KT 5SM -SHRA OVC050
     FM220300 33005KT P6SM BKN050
     FM220800 34008KT P6SM OVC030=



000
FTUS41 KLWX 211100
TAFMTN
TAF
KMTN 211139Z 2112/2212 00000KT 5SM BR BKN100
     FM211300 VRB03KT P6SM BKN100
     FM211800 26005KT 6SM -SHRA BKN060
     FM212100 29005KT 5SM -SHRA BKN040
     FM220400 36005KT 6SM -SHRA OVC030=



000
FTUS41 KLWX 211100
TAFCHO
TAF
KCHO 211139Z 2112/2212 VRB03KT P6SM SCT060 BKN120
     FM211400 26005KT P6SM BKN090
     FM211800 25005KT 6SM -SHRA BKN050
     FM212100 28005KT P6SM BKN045
     FM220500 34006KT P6SM BKN050
     FM220900 34007KT P6SM BKN030=



000
FTUS41 KLWX 211100
TAFBWI
TAF
KBWI 211139Z 2112/2218 27005KT P6SM BKN100
     FM211800 27005KT 6SM -SHRA BKN060
     FM212100 32005KT 5SM -SHRA BKN035
     FM220600 35007KT P6SM OVC015
     FM221200 33013KT P6SM OVC015=



000
FTUS41 KLWX 211100
TAFIAD
TAF
KIAD 211139Z 2112/2218 00000KT 5SM BR SCT100
     FM211300 00000KT P6SM BKN080
     FM211800 29005KT 6SM -SHRA OVC050
     FM212100 31005KT 5SM -SHRA OVC050
     FM220000 32004KT P6SM OVC050
     FM220500 34006KT P6SM OVC030
     FM221200 33012KT P6SM OVC010
     FM221500 33015G23KT P6SM OVC015=



000
FTUS41 KLWX 211100
TAFMRB
TAF
KMRB 211139Z 2112/2212 00000KT 2SM BR OVC005
      TEMPO 2112/2114 1SM BR VV002
     FM211400 VRB03KT P6SM BKN060
     FM211800 29006KT 5SM -SHRA BKN040
     FM212100 28005KT P6SM OVC040
     FM220200 32005KT P6SM OVC030
     FM220400 34006KT P6SM OVC020=



000
FTUS41 KLWX 211100
TAFDCA
TAF
KDCA 211139Z 2112/2212 VRB03KT P6SM SCT100
     FM211400 28005KT P6SM BKN090
     FM211800 28005KT 6SM -SHRA OVC070
     FM220000 33006KT 5SM -SHRA OVC050
     FM220300 33005KT P6SM BKN050
     FM220800 34008KT P6SM OVC030=



000
FTUS41 KLWX 211000 AAA
TAFMRB
TAF AMD
KMRB 211051Z 2111/2206 00000KT 5SM BR SCT045
     FM211200 28003KT P6SM SCT003 BKN100
     FM211300 28004KT P6SM BKN045
     FM211700 29004KT 6SM -SHRA BKN040
     FM220000 29006KT P6SM -SHRA BKN035=



000
FTUS41 KLWX 211000 AAA
TAFMRB
TAF AMD
KMRB 211051Z 2111/2206 00000KT 5SM BR SCT045
     FM211200 28003KT P6SM SCT003 BKN100
     FM211300 28004KT P6SM BKN045
     FM211700 29004KT 6SM -SHRA BKN040
     FM220000 29006KT P6SM -SHRA BKN035=



000
FTUS41 KLWX 211000 AAB
TAFIAD
TAF AMD
KIAD 211004Z 2110/2212 VRB03KT 6SM MIFG SCT080
     FM211900 30004KT 6SM -SHRA BKN045
     FM220000 32004KT P6SM -SHRA OVC040
     FM220700 34008KT P6SM BKN060
     FM221000 34012G20KT P6SM OVC030=



000
FTUS41 KLWX 211000 AAB
TAFIAD
TAF AMD
KIAD 211004Z 2110/2212 VRB03KT 6SM MIFG SCT080
     FM211900 30004KT 6SM -SHRA BKN045
     FM220000 32004KT P6SM -SHRA OVC040
     FM220700 34008KT P6SM BKN060
     FM221000 34012G20KT P6SM OVC030=



000
FTUS41 KLWX 210900 AAA
TAFDCA
TAF AMD
KDCA 210906Z 2109/2206 18006KT P6SM BKN080
     FM211400 28004KT P6SM BKN060
     FM212000 28004KT 6SM -SHRA BKN040
     FM220100 VRB03KT P6SM OVC050=



000
FTUS41 KLWX 210900 AAA
TAFBWI
TAF AMD
KBWI 210906Z 2109/2212 19006KT P6SM OVC070
     FM211100 26004KT P6SM BKN050
     FM212000 27004KT 6SM -SHRA BKN040
     FM220200 VRB03KT P6SM OVC060
     FM220600 35007KT P6SM BKN080
     FM221100 33012G20KT P6SM OVC070=



000
FTUS41 KLWX 210900 AAA
TAFIAD
TAF AMD
KIAD 210906Z 2109/2212 VRB03KT P6SM BKN080
     FM211900 30004KT 6SM -SHRA BKN040
     FM220000 32004KT P6SM OVC040
     FM220700 34008KT P6SM BKN060
     FM221000 34012G20KT P6SM OVC030=



000
FTUS41 KLWX 210500
TAFCHO
TAF
KCHO 210537Z 2106/2206 21004KT P6SM BKN050
     FM211100 VRB03KT P6SM SCT250
     FM211500 26004KT P6SM BKN060
     FM212300 32005KT P6SM BKN040=



000
FTUS41 KLWX 210500
TAFBWI
TAF
KBWI 210537Z 2106/2212 19006KT P6SM OVC070
     FM211100 26004KT P6SM BKN050
     FM211800 27004KT 6SM -SHRA BKN040
     FM220000 VRB03KT P6SM OVC060
     FM220600 35007KT P6SM BKN080
     FM221100 33012G20KT P6SM OVC070=



000
FTUS41 KLWX 210500
TAFMRB
TAF
KMRB 210537Z 2106/2206 00000KT P6SM OVC040
     FM211500 29004KT 6SM -SHRA BKN040
     FM220000 29006KT P6SM BKN035=



000
FTUS41 KLWX 210500
TAFDCA
TAF
KDCA 210537Z 2106/2206 18006KT P6SM BKN080
     FM211400 28004KT P6SM BKN060
     FM211800 28004KT 6SM -SHRA BKN040
     FM220000 VRB03KT P6SM OVC050=



000
FTUS41 KLWX 210500
TAFIAD
TAF
KIAD 210537Z 2106/2212 18005KT P6SM BKN080
     FM211100 VRB03KT P6SM BKN050
     FM211800 29004KT 6SM -SHRA BKN040
     FM220000 32004KT P6SM OVC040
     FM220700 34008KT P6SM BKN060
     FM221000 34012G20KT P6SM OVC030=



000
FTUS41 KLWX 210500
TAFMTN
TAF
KMTN 210537Z 2106/2206 NIL=



000
FTUS41 KLWX 202300
TAFMTN
TAF
KMTN 202334Z 2100/2124 16010G17KT P6SM BKN040
     FM211100 VRB03KT P6SM BKN060
     FM211800 VRB03KT 6SM -SHRA BKN060
      AMD NOT SKED 2102/2112=



000
FTUS41 KLWX 202300
TAFIAD
TAF
KIAD 202334Z 2100/2206 18005KT P6SM VCSH OVC040
      TEMPO 2101/2103 -SHRA
     FM211100 00000KT P6SM BKN050
     FM212100 30006KT P6SM BKN035=



000
FTUS41 KLWX 202300
TAFMRB
TAF
KMRB 202334Z 2100/2124 17005KT 6SM -SHRA OVC060
     FM210200 19005KT P6SM BKN060
     FM211000 00000KT P6SM BKN050
     FM211900 30006KT P6SM BKN035=



000
FTUS41 KLWX 202300
TAFCHO
TAF
KCHO 202334Z 2100/2124 20005KT P6SM VCSH OVC035
     FM210800 00000KT P6SM BKN080
     FM211100 VRB03KT P6SM SCT250
     FM211500 28004KT P6SM BKN060=



000
FTUS41 KLWX 202300
TAFBWI
TAF
KBWI 202334Z 2100/2206 18006KT P6SM BKN040
     FM211300 00000KT P6SM BKN050
     FM220000 31006KT P6SM OVC060=



000
FTUS41 KLWX 202300
TAFDCA
TAF
KDCA 202334Z 2100/2124 18008KT P6SM BKN040
      TEMPO 2101/2103 -SHRA
     FM211700 28004KT P6SM BKN050=



000
FTUS41 KLWX 202100 AAA
TAFBWI
TAF AMD
KBWI 202116Z 2021/2124 20008KT P6SM BKN100
     FM210300 VRB04KT P6SM BKN060
     FM211300 24005KT P6SM BKN050
     FM212200 27005KT P6SM BKN050=



000
FTUS41 KLWX 202100 AAA
TAFIAD
TAF AMD
KIAD 202116Z 2021/2124 19010KT P6SM BKN200
     FM202300 19006KT P6SM OVC100
     FM210600 00000KT P6SM BKN060
     FM211300 28005KT P6SM BKN050=



000
FTUS41 KLWX 202100 AAA
TAFDCA
TAF AMD
KDCA 202116Z 2021/2118 19010KT P6SM BKN200
     FM210300 20006KT P6SM BKN110
     FM211600 25005KT P6SM BKN050=



000
FTUS41 KLWX 201700 RRA
TAFIAD
TAF
KIAD 201744Z 2018/2124 19010G18KT P6SM FEW200
     FM202300 19006KT P6SM OVC100
     FM210600 00000KT P6SM BKN060
     FM211300 28005KT P6SM BKN050=



000
FTUS41 KLWX 201700 RRA
TAFMRB
TAF
KMRB 201744Z 2018/2118 16005KT P6SM SCT100
     FM201900 19006KT P6SM BKN100
     FM210100 VRB03KT P6SM BKN050
     FM211300 28005KT P6SM OVC050=



000
FTUS41 KLWX 201700 RRA
TAFMTN
TAF
KMTN 201744Z 2018/2118 16010G15KT P6SM BKN200
     FM210000 19008KT P6SM BKN110
     FM210300 VRB03KT P6SM BKN060
     FM211300 24005KT P6SM BKN060=



000
FTUS41 KLWX 201700 RRA
TAFBWI
TAF
KBWI 201744Z 2018/2124 18010G16KT P6SM FEW200
     FM210000 20008KT P6SM BKN100
     FM210300 VRB04KT P6SM BKN060
     FM211300 24005KT P6SM BKN050
     FM212200 27005KT P6SM BKN050=



000
FTUS41 KLWX 201700 RRA
TAFCHO
TAF
KCHO 201744Z 2018/2118 20011KT P6SM FEW200
     FM210000 21005KT P6SM OVC110
     FM210300 VRB03KT P6SM SCT060
     FM211300 27005KT P6SM BKN045=



000
FTUS41 KLWX 201700 RRA
TAFDCA
TAF
KDCA 201744Z 2018/2118 19014G21KT P6SM SKC
     FM210300 20006KT P6SM BKN110
     FM211600 25005KT P6SM BKN050=



000
FTUS41 KLWX 201600 AAB
TAFIAD
TAF AMD
KIAD 201638Z 2017/2118 18012G18KT P6SM BKN200
     FM202300 17005KT P6SM BKN200
     FM211000 00000KT P6SM OVC060=



000
FTUS41 KLWX 201400 AAA
TAFBWI
TAF AMD
KBWI 201459Z 2015/2118 15006KT P6SM BKN200
     FM201800 18010G15KT P6SM BKN200
     FM202300 17006KT P6SM BKN200
     FM211000 00000KT P6SM OVC060=



000
FTUS41 KLWX 201400 AAA
TAFIAD
TAF AMD
KIAD 201459Z 2015/2118 19006KT P6SM SCT200
     FM201800 17010G15KT P6SM BKN200
     FM202300 17005KT P6SM BKN200
     FM211000 00000KT P6SM OVC060=



000
FTUS41 KLWX 201400 AAA
TAFDCA
TAF AMD
KDCA 201459Z 2015/2112 18010KT P6SM BKN200
     FM201600 18011G18KT P6SM BKN200
     FM210000 17006KT P6SM BKN200=



000
FTUS41 KLWX 201100
TAFBWI
TAF
KBWI 201134Z 2012/2118 00000KT P6SM SCT200
     FM201500 17006KT P6SM BKN200
     FM201800 18010KT P6SM BKN200
     FM202300 17006KT P6SM BKN200
     FM211000 00000KT P6SM OVC060=



000
FTUS41 KLWX 201100
TAFMRB
TAF
KMRB 201134Z 2012/2112 00000KT P6SM BKN200
     FM201400 18007KT P6SM BKN200
     FM210500 VRB03KT P6SM BKN060=



000
FTUS41 KLWX 201100
TAFIAD
TAF
KIAD 201134Z 2012/2118 00000KT P6SM SCT200
     FM201400 19006KT P6SM SCT200
     FM201600 17010KT P6SM BKN200
     FM202300 17005KT P6SM BKN200
     FM211000 00000KT P6SM OVC060=



000
FTUS41 KLWX 201100
TAFCHO
TAF
KCHO 201134Z 2012/2112 VRB03KT P6SM SCT200
     FM201700 19008KT P6SM SCT200
     FM210000 19006KT P6SM BKN110=



000
FTUS41 KLWX 201100
TAFMTN
TAF
KMTN 201134Z 2012/2112 00000KT P6SM SCT200
     FM201500 17006KT P6SM BKN200
     FM201700 18010KT P6SM BKN200
     FM210000 17006KT P6SM BKN120
     FM210400 19010KT P6SM BKN110
     FM210800 21006KT P6SM OVC060=



000
FTUS41 KLWX 201100
TAFDCA
TAF
KDCA 201134Z 2012/2112 VRB03KT P6SM SCT200
     FM201500 17007KT P6SM SCT200
     FM201800 18011KT P6SM BKN200
     FM202300 17006KT P6SM BKN200=



000
FTUS41 KLWX 200800 AAA
TAFBWI
TAF AMD
KBWI 200847Z 2009/2112 00000KT P6SM FEW200
     FM201400 19006KT P6SM BKN200
     FM201800 19011G17KT P6SM BKN200
     FM202300 18005KT P6SM BKN200
     FM211100 00000KT P6SM SCT060=



000
FTUS41 KLWX 200800 AAA
TAFDCA
TAF AMD
KDCA 200847Z 2009/2106 VRB03KT P6SM FEW200
     FM201400 18006KT P6SM SCT200
     FM201900 19011G17KT P6SM BKN180
     FM202300 20006KT P6SM BKN120=



000
FTUS41 KLWX 200800 AAA
TAFIAD
TAF AMD
KIAD 200847Z 2009/2112 00000KT P6SM FEW200
     FM201400 18007KT P6SM SCT200
     FM201800 19012G18KT P6SM BKN180
     FM210000 20003KT P6SM BKN080
     FM211100 00000KT P6SM SCT060=



000
FTUS41 KLWX 200500 RRA
TAFCHO
TAF
KCHO 200541Z 2006/2106 00000KT P6SM FEW200
     FM201500 19006KT P6SM SCT200
     FM201800 19010KT P6SM SCT200
     FM202200 20006KT P6SM BKN200
     FM210100 00000KT P6SM BKN110=



000
FTUS41 KLWX 200500 RRA
TAFMTN
TAF
KMTN 200541Z 2006/2106 NIL=



000
FTUS41 KLWX 200500 RRA
TAFMRB
TAF
KMRB 200541Z 2006/2106 00000KT P6SM FEW200
     FM201500 18007KT P6SM BKN200
     FM210000 VRB03KT P6SM BKN060=



000
FTUS41 KLWX 200500 RRA
TAFDCA
TAF
KDCA 200541Z 2006/2106 VRB03KT P6SM FEW200
     FM201400 18006KT P6SM SCT200
     FM201900 19011G17KT P6SM BKN180
     FM202300 19006KT P6SM BKN120=



000
FTUS41 KLWX 200500 RRA
TAFIAD
TAF
KIAD 200541Z 2006/2112 00000KT P6SM FEW200
     FM201400 19007KT P6SM SCT200
     FM201800 19012G18KT P6SM BKN180
     FM210000 VRB03KT P6SM BKN080
     FM211100 00000KT P6SM SCT060=



000
FTUS41 KLWX 200500 RRA
TAFBWI
TAF
KBWI 200541Z 2006/2112 00000KT P6SM FEW200
     FM201400 19006KT P6SM BKN200
     FM201800 19011G17KT P6SM BKN200
     FM202300 18005KT P6SM BKN200
     FM211100 00000KT P6SM SCT060=



000
FTUS41 KLWX 192300
TAFMTN
TAF
KMTN 192322Z 2000/2024 VRB03KT P6SM BKN200
     FM201400 15005KT P6SM BKN200
     FM202300 VRB03KT P6SM BKN200
      AMD NOT SKED 2002/2012=



000
FTUS41 KLWX 192300
TAFIAD
TAF
KIAD 192322Z 2000/2106 VRB03KT P6SM BKN200
     FM201200 18006KT P6SM BKN200
     FM201500 18008G16KT P6SM BKN200
     FM202300 19004KT P6SM BKN200=



000
FTUS41 KLWX 192300
TAFCHO
TAF
KCHO 192322Z 2000/2024 00000KT P6SM BKN200
     FM201300 19006KT P6SM BKN200
     FM201500 19008G16KT P6SM BKN200
     FM202200 20006KT P6SM BKN200=



000
FTUS41 KLWX 192300
TAFMRB
TAF
KMRB 192322Z 2000/2024 VRB03KT P6SM BKN200
     FM201200 19005KT P6SM BKN200
     FM201500 19008G16KT P6SM BKN200
     FM202300 19005KT P6SM BKN200=



000
FTUS41 KLWX 192300
TAFBWI
TAF
KBWI 192322Z 2000/2106 VRB03KT P6SM BKN200
     FM201200 19006KT P6SM BKN200
     FM201500 19008G16KT P6SM BKN200
     FM202300 18005KT P6SM BKN200=



000
FTUS41 KLWX 192300
TAFCHO
TAF
KCHO 192322Z 2000/2024 00000KT P6SM BKN200
     FM201300 19006KT P6SM BKN200
     FM201500 19008G16KT P6SM BKN200
     FM202200 20006KT P6SM BKN200=



000
FTUS41 KLWX 192300
TAFIAD
TAF
KIAD 192322Z 2000/2106 VRB03KT P6SM BKN200
     FM201200 18006KT P6SM BKN200
     FM201500 18008G16KT P6SM BKN200
     FM202300 19004KT P6SM BKN200=



000
FTUS41 KLWX 192300
TAFMTN
TAF
KMTN 192322Z 2000/2024 VRB03KT P6SM BKN200
     FM201400 15005KT P6SM BKN200
     FM202300 VRB03KT P6SM BKN200
      AMD NOT SKED 2002/2012=



000
FTUS41 KLWX 192300
TAFDCA
TAF
KDCA 192322Z 2000/2024 33005KT P6SM BKN200
     FM200300 VRB03KT P6SM BKN200
     FM201200 18006KT P6SM BKN200
     FM201500 18008G16KT P6SM BKN200
     FM202300 19006KT P6SM BKN200=



000
FTUS41 KLWX 192300
TAFBWI
TAF
KBWI 192322Z 2000/2106 VRB03KT P6SM BKN200
     FM201200 19006KT P6SM BKN200
     FM201500 19008G16KT P6SM BKN200
     FM202300 18005KT P6SM BKN200=



000
FTUS41 KLWX 192300
TAFDCA
TAF
KDCA 192322Z 2000/2024 33005KT P6SM BKN200
     FM200300 VRB03KT P6SM BKN200
     FM201200 18006KT P6SM BKN200
     FM201500 18008G16KT P6SM BKN200
     FM202300 19006KT P6SM BKN200=



000
FTUS41 KLWX 192300
TAFMRB
TAF
KMRB 192322Z 2000/2024 VRB03KT P6SM BKN200
     FM201200 19005KT P6SM BKN200
     FM201500 19008G16KT P6SM BKN200
     FM202300 19005KT P6SM BKN200=



000
FTUS41 KLWX 192000 AAA
TAFDCA
TAF AMD
KDCA 192058Z 1921/2018 32010G18KT P6SM FEW045
     FM192300 31009KT P6SM FEW250
     FM200400 VRB04KT P6SM SKC
     FM201400 19008KT P6SM SCT250=



000
FTUS41 KLWX 192000 AAA
TAFBWI
TAF AMD
KBWI 192058Z 1921/2024 30010G18KT P6SM FEW045
     FM192200 30010KT P6SM FEW250
     FM200200 26004KT P6SM FEW250
     FM201300 21004KT P6SM SCT250
     FM201800 18008KT P6SM SCT250=



000
FTUS41 KLWX 192000 AAA
TAFIAD
TAF AMD
KIAD 192058Z 1921/2024 30010G18KT P6SM FEW045
     FM192200 30009KT P6SM FEW250
     FM200200 VRB03KT P6SM FEW250
     FM201400 18008KT P6SM SCT250
     FM202200 19004KT P6SM SCT040 BKN120=



000
FTUS41 KLWX 191700
TAFBWI
TAF
KBWI 191720Z 1918/2024 29015G27KT P6SM FEW045
     FM192200 30010KT P6SM FEW250
     FM200200 26004KT P6SM FEW250
     FM201300 21004KT P6SM SCT250
     FM201800 18008KT P6SM SCT250=



000
FTUS41 KLWX 191700
TAFMTN
TAF
KMTN 191720Z 1918/2018 31012G28KT P6SM FEW250
     FM192200 31010G18KT P6SM FEW250
     FM200200 28005KT P6SM FEW200
     FM201400 16006KT P6SM SCT250=



000
FTUS41 KLWX 191700
TAFMRB
TAF
KMRB 191720Z 1918/2018 34013G23KT P6SM SKC
     FM192200 31009KT P6SM FEW250
     FM200200 31005KT P6SM FEW250
     FM201400 18007KT P6SM SCT250=



000
FTUS41 KLWX 191700
TAFDCA
TAF
KDCA 191720Z 1918/2018 32017G27KT P6SM FEW045
     FM192200 31009KT P6SM FEW250
     FM200400 VRB04KT P6SM SKC
     FM201400 19008KT P6SM SCT250=



000
FTUS41 KLWX 191700
TAFCHO
TAF
KCHO 191720Z 1918/2018 35009KT P6SM SKC
     FM192200 32004KT P6SM SKC
     FM201400 20008KT P6SM SCT250=



000
FTUS41 KLWX 191700
TAFIAD
TAF
KIAD 191720Z 1918/2024 32016G26KT P6SM FEW045
     FM192200 31009KT P6SM FEW250
     FM200200 VRB03KT P6SM FEW250
     FM201400 18008KT P6SM SCT250
     FM202200 19004KT P6SM SCT040 BKN120=



000
FTUS41 KLWX 191500 AAA
TAFBWI
TAF AMD
KBWI 191500Z 1915/2018 32015G26KT P6SM SCT045
     FM200000 31006KT P6SM FEW250
     FM200300 27003KT P6SM SCT250
     FM201500 19008KT P6SM SCT250=



000
FTUS41 KLWX 191500 AAA
TAFDCA
TAF AMD
KDCA 191500Z 1915/2012 32015G28KT P6SM SCT045
     FM192200 31009KT P6SM FEW250
     FM200000 32005KT P6SM FEW250=



000
FTUS41 KLWX 191500 AAA
TAFIAD
TAF AMD
KIAD 191500Z 1915/2018 34017G28KT P6SM SCT045
     FM192200 31009KT P6SM FEW250
     FM200000 VRB04KT P6SM FEW250
     FM201400 18005KT P6SM SCT250=



000
FTUS41 KLWX 191100
TAFCHO
TAF
KCHO 191130Z 1912/2012 VRB03KT P6SM SKC
     FM191500 32010G19KT P6SM BKN040
     FM192300 00000KT P6SM FEW250=



000
FTUS41 KLWX 191100
TAFMRB
TAF
KMRB 191130Z 1912/2012 30014KT P6SM OVC045
     FM191500 32014G23KT P6SM BKN040
     FM192200 31009KT P6SM FEW250
     FM200400 28004KT P6SM FEW250=



000
FTUS41 KLWX 191100
TAFDCA
TAF
KDCA 191130Z 1912/2012 33014G21KT P6SM BKN045 BKN090
     FM191500 32016G27KT P6SM BKN040
     FM192200 31009KT P6SM FEW250
     FM200000 32005KT P6SM FEW250=



000
FTUS41 KLWX 191100
TAFIAD
TAF
KIAD 191130Z 1912/2018 33010G18KT P6SM SCT035 BKN050
     FM191500 32016G26KT P6SM BKN040
     FM192200 31009KT P6SM FEW250
     FM200000 VRB04KT P6SM FEW250
     FM201400 18005KT P6SM SCT250=



000
FTUS41 KLWX 191100
TAFBWI
TAF
KBWI 191130Z 1912/2018 31009G17KT P6SM FEW030 BKN045 BKN090
     FM191500 32016G28KT P6SM BKN040
     FM200000 31006KT P6SM FEW250
     FM200300 27003KT P6SM SCT250
     FM201500 19008KT P6SM SCT250=



000
FTUS41 KLWX 191100
TAFMTN
TAF
KMTN 191130Z 1912/2012 32011G20KT P6SM BKN040
     FM191500 32016G27KT P6SM BKN040
     FM192300 31008KT P6SM FEW250
     FM200200 VRB03KT P6SM FEW250=



000
FTUS41 KLWX 191000 AAA
TAFMRB
TAF AMD
KMRB 191003Z 1910/2006 32013G20KT P6SM BKN035
     FM192200 31009KT P6SM FEW250
     FM200000 VRB04KT P6SM FEW250=



000
FTUS41 KLWX 191000 AAB
TAFDCA
TAF AMD
KDCA 191001Z 1910/2006 32014G22KT P6SM SCT090 BKN250
     FM192200 31013KT P6SM SCT040
     FM200000 32005KT P6SM FEW250=



000
FTUS41 KLWX 191000 AAB
TAFIAD
TAF AMD
KIAD 191000Z 1910/2012 32014G20KT P6SM BKN040
     FM191400 31017G25KT P6SM SCT040
     FM192300 32006KT P6SM FEW250
     FM200400 00000KT P6SM FEW250=



000
FTUS41 KLWX 191000 AAB
TAFIAD
TAF AMD
KIAD 191000Z 1910/2012 32014G20KT P6SM BKN040
     FM191400 31017G25KT P6SM SCT040
     FM192300 32006KT P6SM FEW250
     FM200400 00000KT P6SM FEW250=



000
FTUS41 KLWX 190800 AAA
TAFBWI
TAF AMD
KBWI 190858Z 1909/2012 30008KT P6SM SCT040 BKN090
     FM191300 31014G21KT P6SM SCT040
     FM200000 31006KT P6SM FEW250
     FM200300 VRB03KT P6SM SCT250=



000
FTUS41 KLWX 190800 AAA
TAFDCA
TAF AMD
KDCA 190858Z 1909/2006 32010KT P6SM SCT050 BKN090
     FM191400 31013G20KT P6SM SCT040
     FM200000 32005KT P6SM FEW250=



000
FTUS41 KLWX 190800 AAA
TAFIAD
TAF AMD
KIAD 190858Z 1909/2012 30011KT P6SM FEW050 BKN200
     FM191400 31013G20KT P6SM SCT040
     FM192300 32006KT P6SM FEW250
     FM200400 00000KT P6SM FEW250=



000
FTUS41 KLWX 190500
TAFCHO
TAF
KCHO 190536Z 1906/2006 VRB03KT P6SM BKN050
     FM190900 31006KT P6SM BKN250
     FM191500 32010G15KT P6SM FEW250
     FM192200 32005KT P6SM FEW250=



000
FTUS41 KLWX 190500
TAFIAD
TAF
KIAD 190536Z 1906/2012 30011KT P6SM OVC050
     FM191400 31013G20KT P6SM SCT040
     FM192300 32006KT P6SM FEW250
     FM200400 00000KT P6SM FEW250=



000
FTUS41 KLWX 190500
TAFMTN
TAF
KMTN 190536Z 1906/2006 NIL=



000
FTUS41 KLWX 190500
TAFBWI
TAF
KBWI 190536Z 1906/2012 28008KT P6SM SCT050 BKN080
     FM191300 31014G21KT P6SM SCT040
     FM200000 31006KT P6SM FEW250
     FM200300 VRB03KT P6SM SCT250=



000
FTUS41 KLWX 190500
TAFDCA
TAF
KDCA 190536Z 1906/2006 30007KT P6SM SCT050 BKN090
     FM191400 31013G20KT P6SM SCT040
     FM200000 32005KT P6SM FEW250=



000
FTUS41 KLWX 190500
TAFMRB
TAF
KMRB 190536Z 1906/2006 30011KT P6SM BKN035
     FM191500 31013G20KT P6SM SCT040
     FM192200 31009KT P6SM FEW250
     FM200000 VRB04KT P6SM FEW250=



    US Dept of Commerce
    National Oceanic and Atmospheric Administration
    National Weather Service
    1325 East West Highway
    Silver Spring, MD 20910
    Page Author: NWS Internet Services Team
Disclaimer
Information Quality
Credits
Glossary
Privacy Policy
Freedom of Information Act (FOIA)
About Us
Career Opportunities